createdAt,value
2019-02-23T00:03:24.028Z,7.97
2019-02-23T00:08:28.199Z,7.63
2019-02-23T00:13:33.141Z,7.33
2019-02-23T00:18:37.347Z,7.57
2019-02-23T00:23:42.404Z,7.10
2019-02-23T00:28:46.581Z,7.57
2019-02-23T00:33:51.149Z,8.57
2019-02-23T00:38:55.340Z,7.67
2019-02-23T00:44:00.263Z,7.83
2019-02-23T00:49:05.406Z,7.13
2019-02-23T00:54:10.057Z,7.40
2019-02-23T00:59:14.310Z,7.93
2019-02-23T01:04:18.519Z,8.07
2019-02-23T01:09:22.701Z,8.33
2019-02-23T01:14:27.517Z,7.83
2019-02-23T01:19:31.719Z,8.90
2019-02-23T01:24:36.878Z,7.90
2019-02-23T01:29:41.033Z,7.27
2019-02-23T01:34:46.805Z,7.30
2019-02-23T01:39:51.048Z,6.83
2019-02-23T01:44:55.880Z,7.67
2019-02-23T01:50:00.251Z,7.43
2019-02-23T01:55:04.806Z,7.53
2019-02-23T02:00:12.585Z,7.10
2019-02-23T02:05:17.486Z,7.97
2019-02-23T02:10:22.763Z,6.67
2019-02-23T02:15:27.629Z,8.00
2019-02-23T02:20:32.254Z,8.03
2019-02-23T02:25:37.228Z,7.03
2019-02-23T02:30:41.397Z,7.60
2019-02-23T02:35:46.607Z,7.33
2019-02-23T02:40:50.820Z,7.43
2019-02-23T02:45:55.809Z,6.97
2019-02-23T02:50:59.985Z,6.67
2019-02-23T02:56:04.987Z,7.10
2019-02-23T03:01:09.171Z,6.83
2019-02-23T03:06:13.653Z,6.77
2019-02-23T03:11:19.007Z,6.83
2019-02-23T03:16:23.537Z,6.73
2019-02-23T03:21:27.711Z,6.33
2019-02-23T03:26:32.852Z,5.90
2019-02-23T03:31:37.020Z,6.53
2019-02-23T03:36:41.501Z,6.17
2019-02-23T03:41:45.668Z,6.70
2019-02-23T03:46:52.586Z,6.73
2019-02-23T03:51:56.759Z,6.13
2019-02-23T03:57:01.510Z,6.27
2019-02-23T04:02:05.710Z,6.27
2019-02-23T04:07:10.191Z,5.93
2019-02-23T04:12:14.373Z,6.30
2019-02-23T04:17:18.653Z,6.47
2019-02-23T04:22:22.815Z,6.10
2019-02-23T04:27:27.926Z,5.53
2019-02-23T04:32:32.136Z,4.90
2019-02-23T04:37:37.113Z,5.50
2019-02-23T04:42:41.301Z,5.73
2019-02-23T04:47:45.499Z,6.00
2019-02-23T04:52:49.675Z,5.10
2019-02-23T04:57:54.586Z,5.87
2019-02-23T05:02:58.960Z,5.20
2019-02-23T05:08:03.459Z,5.63
2019-02-23T05:13:07.641Z,5.60
2019-02-23T05:18:12.003Z,6.23
2019-02-23T05:23:16.255Z,5.43
2019-02-23T05:28:20.453Z,5.73
2019-02-23T05:33:24.695Z,6.37
2019-02-23T05:38:29.472Z,4.33
2019-02-23T05:43:33.680Z,5.50
2019-02-23T05:48:38.928Z,5.57
2019-02-23T05:53:43.104Z,6.90
2019-02-23T05:58:48.250Z,6.67
2019-02-23T06:03:52.435Z,6.47
2019-02-23T06:08:56.827Z,6.20
2019-02-23T06:14:01.035Z,5.97
2019-02-23T06:19:06.134Z,6.27
2019-02-23T06:24:10.533Z,6.93
2019-02-23T06:29:15.598Z,5.20
2019-02-23T06:34:19.774Z,5.53
2019-02-23T06:39:24.338Z,5.60
2019-02-23T06:44:28.629Z,6.07
2019-02-23T06:49:32.937Z,7.10
2019-02-23T06:54:37.175Z,5.87
2019-02-23T06:59:41.835Z,5.57
2019-02-23T07:04:46.175Z,5.30
2019-02-23T07:09:50.595Z,7.10
2019-02-23T07:14:54.986Z,6.93
2019-02-23T07:19:59.589Z,7.83
2019-02-23T07:25:04.243Z,4.67
2019-02-23T07:30:09.391Z,7.23
2019-02-23T07:35:13.870Z,6.20
2019-02-23T07:40:18.483Z,6.47
2019-02-23T07:45:22.671Z,6.43
2019-02-23T07:50:27.463Z,6.43
2019-02-23T07:55:31.660Z,6.53
2019-02-23T08:00:36.357Z,7.03
2019-02-23T08:05:40.699Z,5.07
2019-02-23T08:10:45.493Z,5.30
2019-02-23T08:15:49.724Z,7.27
2019-02-23T08:20:54.678Z,6.97
2019-02-23T08:25:58.947Z,6.47
2019-02-23T08:31:03.494Z,5.40
2019-02-23T08:36:07.766Z,5.75
2019-02-23T08:41:13.498Z,6.03
2019-02-23T08:46:18.212Z,4.90
2019-02-23T08:51:22.750Z,6.00
2019-02-23T08:56:27.320Z,5.93
2019-02-23T09:01:32.543Z,3.87
2019-02-23T09:06:36.814Z,5.30
2019-02-23T09:11:43.862Z,5.95
2019-02-23T09:16:48.495Z,3.77
2019-02-23T09:21:54.405Z,3.62
2019-02-23T09:26:58.980Z,5.20
2019-02-23T09:32:04.774Z,5.30
2019-02-23T09:37:09.051Z,3.50
2019-02-23T09:42:16.486Z,5.20
2019-02-23T09:47:22.022Z,5.15
2019-02-23T09:52:27.990Z,5.40
2019-02-23T09:57:32.475Z,3.90
2019-02-23T10:02:36.788Z,4.97
2019-02-23T10:07:41.436Z,4.87
2019-02-23T10:12:46.044Z,5.10
2019-02-23T10:17:50.635Z,4.97
2019-02-23T10:22:55.134Z,5.00
2019-02-23T10:27:59.632Z,5.07
2019-02-23T10:33:05.836Z,4.47
2019-02-23T10:38:11.120Z,4.67
2019-02-23T10:43:17.102Z,3.20
2019-02-23T10:48:21.852Z,3.37
2019-02-23T10:53:32.734Z,2.40
2019-02-23T10:58:34.354Z,3.77
2019-02-23T11:03:40.874Z,3.47
2019-02-23T11:08:45.404Z,2.93
2019-02-23T11:13:49.951Z,2.70
2019-02-23T11:18:55.096Z,2.57
2019-02-23T11:24:01.103Z,2.40
2019-02-23T11:29:05.776Z,2.57
2019-02-23T11:34:11.492Z,2.97
2019-02-23T11:39:16.203Z,2.90
2019-02-23T11:44:20.685Z,2.00
2019-02-23T11:49:25.244Z,2.70
2019-02-23T11:54:29.923Z,3.00
2019-02-23T11:59:34.409Z,2.60
2019-02-23T12:04:38.886Z,2.63
2019-02-23T12:09:43.412Z,2.40
2019-02-23T12:14:47.900Z,2.23
2019-02-23T12:19:52.527Z,1.67
2019-02-23T12:24:57.049Z,2.43
2019-02-23T12:30:03.279Z,1.83
2019-02-23T12:35:08.159Z,2.17
2019-02-23T12:40:12.610Z,2.37
2019-02-23T12:45:17.220Z,2.13
2019-02-23T12:50:21.666Z,2.60
2019-02-23T12:55:27.858Z,2.60
2019-02-23T13:00:33.648Z,2.10
2019-02-23T13:05:38.185Z,2.60
2019-02-23T13:10:42.703Z,2.17
2019-02-23T13:15:52.791Z,2.37
2019-02-23T13:21:15.194Z,2.00
2019-02-23T13:26:41.794Z,2.23
2019-02-23T13:32:01.892Z,2.30
2019-02-23T13:37:09.817Z,2.07
2019-02-23T13:42:20.806Z,2.27
2019-02-23T13:47:44.646Z,2.00
2019-02-23T13:53:14.497Z,1.70
2019-02-23T13:58:25.651Z,1.40
2019-02-23T14:03:48.862Z,1.40
2019-02-23T14:09:11.586Z,1.83
2019-02-23T14:14:48.363Z,1.50
2019-02-23T14:20:12.507Z,1.70
2019-02-23T14:25:33.000Z,1.43
2019-02-23T14:30:59.974Z,1.77
2019-02-23T14:36:09.151Z,1.57
2019-02-23T14:41:26.515Z,1.40
2019-02-23T14:46:47.113Z,0.63
2019-02-23T14:52:23.176Z,1.40
2019-02-23T14:58:02.109Z,1.70
2019-02-23T15:03:33.074Z,1.50
2019-02-23T15:09:17.279Z,1.33
2019-02-23T15:14:40.218Z,1.60
2019-02-23T15:20:02.499Z,1.50
2019-02-23T15:25:23.138Z,0.70
2019-02-23T15:30:45.715Z,1.87
2019-02-23T15:35:57.546Z,1.67
2019-02-23T15:41:19.880Z,1.50
2019-02-23T15:46:37.498Z,2.15
2019-02-23T15:51:41.822Z,1.80
2019-02-23T15:56:46.346Z,1.60
2019-02-23T16:01:50.533Z,1.67
2019-02-23T16:06:55.519Z,1.67
2019-02-23T16:11:59.737Z,1.80
2019-02-23T16:17:03.934Z,1.80
2019-02-23T16:22:08.137Z,1.75
2019-02-23T16:27:12.987Z,1.92
2019-02-23T16:32:17.191Z,1.50
2019-02-23T16:37:21.535Z,1.70
2019-02-23T16:42:25.814Z,1.60
2019-02-23T16:47:30.595Z,2.33
2019-02-23T16:52:35.111Z,1.90
2019-02-23T16:57:39.998Z,1.75
2019-02-23T17:02:46.408Z,1.53
2019-02-23T17:07:50.803Z,1.37
2019-02-23T17:12:55.012Z,1.40
2019-02-23T17:17:59.202Z,1.45
2019-02-23T17:23:03.843Z,1.63
2019-02-23T17:28:09.686Z,1.53
2019-02-23T17:33:16.368Z,1.47
2019-02-23T17:38:20.570Z,1.77
2019-02-23T17:43:24.805Z,1.40
2019-02-23T17:53:33.924Z,1.40
2019-02-23T17:58:38.439Z,1.50
2019-02-23T18:03:42.918Z,1.57
2019-02-23T18:08:47.917Z,1.97
2019-02-23T18:13:54.510Z,1.73
2019-02-23T18:18:59.785Z,1.70
2019-02-23T18:24:04.184Z,1.55
2019-02-23T18:29:08.802Z,1.80
2019-02-23T18:34:12.997Z,1.40
2019-02-23T18:39:17.211Z,1.50
2019-02-23T18:44:21.397Z,1.50
2019-02-23T18:49:25.886Z,1.50
2019-02-23T18:54:30.077Z,1.67
2019-02-23T18:59:35.598Z,1.60
2019-02-23T19:04:42.200Z,1.72
2019-02-23T19:09:46.521Z,2.10
2019-02-23T19:14:50.719Z,1.53
2019-02-23T19:19:55.348Z,1.60
2019-02-23T19:24:59.552Z,1.90
2019-02-23T19:30:04.177Z,1.50
2019-02-23T19:35:10.336Z,1.70
2019-02-23T19:40:14.624Z,1.67
2019-02-23T19:45:19.061Z,2.00
2019-02-23T19:50:25.044Z,1.57
2019-02-23T19:55:29.304Z,1.83
2019-02-23T20:00:33.730Z,1.90
2019-02-23T20:05:38.499Z,1.60
2019-02-23T20:10:43.030Z,2.20
2019-02-23T20:15:47.356Z,1.57
2019-02-23T20:20:52.766Z,2.30
2019-02-23T20:25:57.067Z,1.80
2019-02-23T20:31:01.287Z,2.03
2019-02-23T20:36:06.508Z,2.10
2019-02-23T20:41:11.727Z,2.13
2019-02-23T20:46:17.036Z,2.03
2019-02-23T20:51:21.742Z,2.00
2019-02-23T20:56:26.199Z,2.13
2019-02-23T21:01:30.689Z,2.17
2019-02-23T21:06:35.736Z,2.13
2019-02-23T21:11:41.753Z,2.07
2019-02-23T21:16:46.301Z,1.87
2019-02-23T21:21:50.507Z,2.10
2019-02-23T21:26:55.791Z,2.10
2019-02-23T21:32:00.006Z,2.20
2019-02-23T21:37:04.680Z,1.93
2019-02-23T21:42:08.872Z,1.90
2019-02-23T21:47:13.297Z,2.47
2019-02-23T21:52:18.033Z,2.00
2019-02-23T21:57:23.052Z,2.47
2019-02-23T22:02:28.499Z,2.30
2019-02-23T22:07:32.735Z,2.13
2019-02-23T22:12:38.073Z,2.63
2019-02-23T22:17:42.332Z,2.13
2019-02-23T22:22:46.661Z,1.93
2019-02-23T22:27:50.932Z,2.00
2019-02-23T22:32:56.764Z,2.30
2019-02-23T22:38:00.955Z,1.97
2019-02-23T22:43:06.654Z,1.90
2019-02-23T22:48:10.874Z,2.10
2019-02-23T22:53:16.267Z,2.13
2019-02-23T22:58:20.560Z,2.73
2019-02-23T23:03:26.026Z,2.53
2019-02-23T23:08:30.306Z,2.57
2019-02-23T23:13:35.552Z,2.60
2019-02-23T23:18:39.711Z,2.40
2019-02-23T23:23:44.863Z,2.40
2019-02-23T23:28:49.040Z,2.93
2019-02-23T23:33:54.850Z,2.00
2019-02-23T23:38:59.043Z,2.70
2019-02-23T23:44:04.697Z,2.73
2019-02-23T23:49:08.914Z,2.70
2019-02-23T23:54:14.517Z,3.20
2019-02-23T23:59:18.708Z,2.90
